Time;durP1;ratioP1;P1;durP2;ratioP2;P2;SDS_P1;SDS_P2;PMS_P1;PMS_P2;Temp;Humidity;BMP_temperature;BMP_pressure;BME280_temperature;BME280_humidity;BME280_pressure;Samples;Min_cycle;Max_cycle;Signal;HPM_P1;HPM_P2
2023/03/25 00:02:21;;;;;;;0.60;0.60;;;;;;;-148.14;100.00;71486.72;1727398;75;42034;-77
2023/03/25 00:04:59;;;;;;;0.70;0.70;;;;;;;-148.14;100.00;71486.72;1727805;75;41722;-74
2023/03/25 00:07:28;;;;;;;;;;;;;;;-148.14;100.00;71486.72;1727325;75;42078;-74
2023/03/25 00:09:58;;;;;;;1.00;0.60;;;;;;;-148.14;100.00;71486.72;1727729;75;42626;-74
2023/03/25 00:12:27;;;;;;;0.40;0.40;;;;;;;-148.14;100.00;71486.72;1727507;75;41353;-72
2023/03/25 00:14:57;;;;;;;0.40;0.40;;;;;;;-148.14;100.00;71486.72;1728277;75;41736;-74
2023/03/25 00:17:29;;;;;;;0.30;0.30;;;;;;;-148.14;100.00;71486.72;1727606;75;41164;-72
2023/03/25 00:20:04;;;;;;;0.40;0.40;;;;;;;-148.14;100.00;71486.72;1728047;75;41168;-74
2023/03/25 00:22:35;;;;;;;1.00;0.70;;;;;;;-148.14;100.00;71486.72;1727534;75;43833;-73
2023/03/25 00:25:05;;;;;;;1.00;0.90;;;;;;;-148.14;100.00;71486.72;1727616;75;41639;-72
2023/03/25 00:27:35;;;;;;;1.20;0.90;;;;;;;-148.14;100.00;71486.72;1727511;83;41882;-77
2023/03/25 00:30:05;;;;;;;0.60;0.60;;;;;;;-148.14;100.00;71486.72;1728206;75;41673;-72
2023/03/25 00:32:35;;;;;;;0.60;0.60;;;;;;;-148.14;100.00;71486.72;1727855;75;42624;-72
2023/03/25 00:35:08;;;;;;;0.50;0.50;;;;;;;-148.14;100.00;71486.72;1727495;75;41384;-72
2023/03/25 00:37:37;;;;;;;0.60;0.50;;;;;;;-148.14;100.00;71486.72;1728607;75;41593;-72
2023/03/25 00:40:10;;;;;;;0.50;0.50;;;;;;;10.51;nan;97069.28;1728378;75;42033;-72
2023/03/25 00:42:48;;;;;;;0.40;0.40;;;;;;;-148.14;100.00;71486.72;1727714;75;60551;-71
2023/03/25 00:45:18;;;;;;;0.50;0.50;;;;;;;-148.14;100.00;71486.72;1727837;75;41503;-74
2023/03/25 00:47:48;;;;;;;0.70;0.40;;;;;;;-148.14;100.00;71486.72;1728284;75;41503;-72
2023/03/25 00:50:20;;;;;;;0.50;0.50;;;;;;;-148.14;100.00;71486.72;1727841;75;41702;-73
2023/03/25 00:52:50;;;;;;;0.30;0.30;;;;;;;10.45;nan;97071.97;1728400;75;24205;-72
2023/03/25 00:55:20;;;;;;;0.40;0.40;;;;;;;10.30;nan;97073.38;1729112;75;24880;-73
2023/03/25 00:57:50;;;;;;;0.40;0.40;;;;;;;10.13;nan;97070.50;1728483;75;24206;-75
2023/03/25 01:00:21;;;;;;;0.60;0.60;;;;;;;10.05;nan;97072.91;1728132;75;25033;-74
2023/03/25 01:02:54;;;;;;;0.40;0.40;;;;;;;10.03;nan;97078.16;1728889;75;25103;-74
2023/03/25 01:05:27;;;;;;;0.30;0.30;;;;;;;9.93;nan;97085.78;1728847;75;25233;-72
2023/03/25 01:07:56;;;;;;;0.60;0.40;;;;;;;9.91;nan;97084.75;1729166;75;24439;-73
2023/03/25 01:10:26;;;;;;;0.50;0.50;;;;;;;9.79;nan;97083.91;1728733;75;24434;-76
2023/03/25 01:12:56;;;;;;;1.60;1.30;;;;;;;9.67;nan;97068.63;1729144;75;24240;-75
2023/03/25 01:15:26;;;;;;;1.40;1.20;;;;;;;9.76;nan;97079.41;1728101;75;24284;-73
2023/03/25 01:17:55;;;;;;;1.30;0.90;;;;;;;9.68;nan;97072.88;1728377;75;24299;-72
2023/03/25 01:20:28;;;;;;;1.00;0.70;;;;;;;9.81;nan;97068.53;1729039;75;24839;-72
2023/03/25 01:22:58;;;;;;;0.70;0.70;;;;;;;9.76;nan;97071.19;1729270;75;24240;-72
2023/03/25 01:25:27;;;;;;;1.00;0.90;;;;;;;9.70;nan;97062.22;1728750;75;25039;-73
2023/03/25 01:27:57;;;;;;;0.80;0.80;;;;;;;9.75;nan;97070.47;1729173;75;25132;-73
2023/03/25 01:30:26;;;;;;;1.20;0.90;;;;;;;9.80;nan;97061.56;1729009;75;24470;-73
2023/03/25 01:32:56;;;;;;;2.10;1.10;;;;;;;9.72;nan;97052.31;1728419;75;24740;-75
2023/03/25 01:35:30;;;;;;;1.50;1.20;;;;;;;9.60;nan;97039.78;1729074;75;24442;-72
2023/03/25 01:38:00;;;;;;;1.50;1.30;;;;;;;9.61;nan;97027.59;1729105;83;24110;-72
2023/03/25 01:40:30;;;;;;;2.60;1.20;;;;;;;9.59;nan;97021.88;1729014;75;24182;-75
2023/03/25 01:43:00;;;;;;;1.60;1.10;;;;;;;9.47;nan;97017.53;1729099;75;24180;-73
2023/03/25 01:45:32;;;;;;;1.20;1.00;;;;;;;9.51;nan;97002.44;1728562;75;25068;-73
2023/03/25 01:48:09;;;;;;;1.90;1.30;;;;;;;9.48;nan;96984.28;1728557;75;24190;-72
2023/03/25 01:50:46;;;;;;;1.20;0.90;;;;;;;9.53;nan;96982.84;1728930;75;25066;-73
2023/03/25 01:53:16;;;;;;;1.00;0.80;;;;;;;9.45;nan;96985.25;1729280;75;24858;-72
2023/03/25 01:55:47;;;;;;;1.10;0.90;;;;;;;9.32;nan;96982.91;1729274;75;25330;-75
2023/03/25 01:58:19;;;;;;;1.90;0.90;;;;;;;9.43;nan;96989.69;1728806;75;24467;-74
2023/03/25 02:00:53;;;;;;;0.70;0.60;;;;;;;9.47;nan;96995.69;1728501;75;24285;-73
2023/03/25 02:03:25;;;;;;;0.60;0.60;;;;;;;9.56;nan;96985.34;1727992;75;24289;-71
2023/03/25 02:06:04;;;;;;;0.50;0.50;;;;;;;9.43;nan;96985.00;1728550;75;24296;-74
2023/03/25 02:08:40;;;;;;;0.70;0.50;;;;;;;9.46;nan;96994.19;1728294;75;24247;-73
2023/03/25 02:11:11;;;;;;;0.40;0.40;;;;;;;9.59;nan;97002.75;1728748;75;25276;-74
2023/03/25 02:13:43;;;;;;;0.80;0.70;;;;;;;9.52;nan;97003.91;1728519;75;60589;-72
2023/03/25 02:16:30;;;;;;;0.80;0.50;;;;;;;9.54;nan;97000.72;1729266;75;24360;-72
2023/03/25 02:19:31;;;;;;;1.00;0.70;;;;;;;9.53;nan;97010.16;1728268;75;61720;-73
2023/03/25 02:22:40;;;;;;;0.60;0.60;;;;;;;9.47;nan;96999.16;1728093;75;60668;-73
2023/03/25 02:25:47;;;;;;;;;;;;;;;9.46;nan;96994.94;1728176;75;61438;-72
2023/03/25 02:28:25;;;;;;;0.40;0.40;;;;;;;9.58;nan;96999.25;1727830;75;59975;-73
2023/03/25 02:31:24;;;;;;;0.40;0.40;;;;;;;9.57;nan;96997.78;1727763;75;24314;-75
2023/03/25 02:34:41;;;;;;;0.20;0.20;;;;;;;9.63;nan;96981.41;1728397;75;24348;-74
2023/03/25 02:38:05;;;;;;;0.30;0.30;;;;;;;9.62;nan;96985.41;1727502;75;24429;-71
2023/03/25 02:40:42;;;;;;;0.90;0.30;;;;;;;9.63;nan;96997.06;1728043;75;61049;-72
2023/03/25 02:43:20;;;;;;;0.30;0.30;;;;;;;9.68;nan;96983.44;1728041;75;24223;-73
2023/03/25 02:45:55;;;;;;;0.30;0.30;;;;;;;9.72;nan;96994.91;1728704;75;24338;-73
2023/03/25 02:48:32;;;;;;;0.20;0.20;;;;;;;9.67;nan;97003.81;1728255;75;24132;-72
2023/03/25 02:51:09;;;;;;;0.50;0.30;;;;;;;9.69;nan;97003.31;1728641;75;24348;-73
2023/03/25 02:53:44;;;;;;;0.20;0.20;;;;;;;9.62;nan;97001.78;1727801;75;61593;-71
2023/03/25 02:56:21;;;;;;;0.20;0.20;;;;;;;9.74;nan;97002.59;1727771;75;24857;-72
2023/03/25 02:58:54;;;;;;;0.40;0.40;;;;;;;9.75;nan;97007.59;1728555;75;24425;-72
2023/03/25 03:01:25;;;;;;;0.20;0.20;;;;;;;9.76;nan;97016.53;1728045;75;24680;-71
2023/03/25 03:03:55;;;;;;;0.30;0.30;;;;;;;9.72;nan;97014.03;1728750;75;24375;-73
2023/03/25 03:06:26;;;;;;;0.30;0.30;;;;;;;9.75;nan;97018.53;1727119;75;25185;-73
2023/03/25 03:09:26;;;;;;;1.10;0.50;;;;;;;9.67;nan;97003.81;1728181;75;25086;-73
2023/03/25 03:12:15;;;;;;;0.30;0.30;;;;;;;9.70;nan;96996.63;1727651;75;62673;-73
2023/03/25 03:15:03;;;;;;;0.30;0.30;;;;;;;9.72;nan;97000.38;1727859;75;24371;-73
2023/03/25 03:17:44;;;;;;;0.40;0.40;;;;;;;9.62;nan;97004.53;1728203;75;24305;-72
2023/03/25 03:20:24;;;;;;;0.50;0.50;;;;;;;9.61;nan;97008.47;1728486;75;24224;-71
2023/03/25 03:23:00;;;;;;;0.40;0.40;;;;;;;9.64;nan;97006.75;1728412;75;24660;-75
2023/03/25 03:25:39;;;;;;;0.50;0.50;;;;;;;9.53;nan;97021.09;1727855;75;24883;-72
2023/03/25 03:28:15;;;;;;;0.60;0.60;;;;;;;9.55;nan;97024.09;1727764;75;61541;-72
2023/03/25 03:30:50;;;;;;;0.40;0.40;;;;;;;9.64;nan;97028.63;1728125;75;24615;-72
2023/03/25 03:33:27;;;;;;;0.50;0.50;;;;;;;9.56;nan;97028.31;1727727;75;24276;-72
2023/03/25 03:36:01;;;;;;;0.30;0.30;;;;;;;9.59;nan;97032.81;1727453;75;25004;-72
2023/03/25 03:38:37;;;;;;;0.80;0.40;;;;;;;9.61;nan;97033.06;1728387;75;24244;-73
2023/03/25 03:41:13;;;;;;;0.40;0.40;;;;;;;9.60;nan;97039.78;1727350;75;24165;-72
2023/03/25 03:43:50;;;;;;;0.30;0.30;;;;;;;9.59;nan;97041.75;1727676;75;24378;-72
2023/03/25 03:46:26;;;;;;;0.70;0.40;;;;;;;9.61;nan;97033.06;1727742;75;60504;-73
2023/03/25 03:48:59;;;;;;;0.60;0.50;;;;;;;9.53;nan;97038.22;1727351;75;24658;-72
2023/03/25 03:51:36;;;;;;;0.60;0.60;;;;;;;9.49;nan;97053.34;1728468;75;24290;-74
2023/03/25 03:54:13;;;;;;;0.60;0.60;;;;;;;9.53;nan;97049.16;1728157;75;24949;-71
2023/03/25 03:56:52;;;;;;;0.60;0.60;;;;;;;9.48;nan;97049.13;1728206;75;24388;-72
2023/03/25 03:59:33;;;;;;;1.00;0.90;;;;;;;9.38;nan;97059.47;1727677;75;59757;-74
2023/03/25 04:02:08;;;;;;;1.60;1.40;;;;;;;9.38;nan;97062.94;1727627;75;24965;-71
2023/03/25 04:04:37;;;;;;;1.80;1.50;;;;;;;9.43;nan;97052.53;1727801;75;24250;-73
2023/03/25 04:07:16;;;;;;;2.00;1.30;;;;;;;9.48;nan;97047.13;1727902;83;24202;-71
2023/03/25 04:09:56;;;;;;;1.50;1.20;;;;;;;9.47;nan;97033.94;1728030;75;24428;-72
2023/03/25 04:12:33;;;;;;;0.80;0.80;;;;;;;9.43;nan;97050.56;1728082;75;62665;-73
2023/03/25 04:15:04;;;;;;;0.70;0.70;;;;;;;9.44;nan;97054.03;1728625;75;24815;-72
2023/03/25 04:17:34;;;;;;;0.50;0.50;;;;;;;9.44;nan;97064.97;1728793;75;24951;-72
2023/03/25 04:20:07;;;;;;;0.70;0.70;;;;;;;9.47;nan;97081.13;1728467;75;24459;-72
2023/03/25 04:22:44;;;;;;;1.60;1.00;;;;;;;9.17;nan;97100.44;1728425;75;24316;-71
2023/03/25 04:25:15;;;;;;;1.80;1.10;;;;;;;9.22;nan;97098.28;1727698;75;24121;-73
2023/03/25 04:27:47;;;;;;;0.80;0.80;;;;;;;9.36;nan;97098.16;1728852;75;24348;-71
2023/03/25 04:30:20;;;;;;;0.80;0.80;;;;;;;9.31;nan;97087.94;1728681;75;24373;-73
2023/03/25 04:32:51;;;;;;;0.70;0.70;;;;;;;9.38;nan;97094.97;1729361;75;24510;-72
2023/03/25 04:35:24;;;;;;;0.70;0.70;;;;;;;9.17;nan;97099.69;1729098;75;24428;-72
2023/03/25 04:37:56;;;;;;;1.50;1.20;;;;;;;9.15;nan;97107.63;1728683;75;24285;-72
2023/03/25 04:40:26;;;;;;;1.20;1.00;;;;;;;9.29;nan;97104.06;1728312;83;25018;-73
2023/03/25 04:42:58;;;;;;;0.60;0.60;;;;;;;9.34;nan;97111.56;1728475;75;25035;-72
2023/03/25 04:45:29;;;;;;;0.80;0.60;;;;;;;9.31;nan;97122.69;1728774;75;57533;-72
2023/03/25 04:47:59;;;;;;;0.60;0.60;;;;;;;9.21;nan;97133.00;1729347;75;25092;-72
2023/03/25 04:50:31;;;;;;;0.70;0.70;;;;;;;9.17;nan;97137.94;1728651;75;60629;-74
2023/03/25 04:53:02;;;;;;;0.80;0.70;;;;;;;9.22;nan;97131.03;1729326;75;24174;-73
2023/03/25 04:55:33;;;;;;;0.50;0.50;;;;;;;9.32;nan;97124.19;1728683;75;61188;-75
2023/03/25 04:58:06;;;;;;;0.80;0.60;;;;;;;9.33;nan;97131.16;1729353;75;24236;-75
2023/03/25 05:00:35;;;;;;;0.60;0.60;;;;;;;9.28;nan;97148.22;1728696;75;60578;-72
2023/03/25 05:03:05;;;;;;;0.60;0.60;;;;;;;9.23;nan;97148.91;1728864;75;24484;-72
2023/03/25 05:05:35;;;;;;;1.20;1.10;;;;;;;9.04;nan;97145.69;1728572;75;24633;-74
2023/03/25 05:08:05;;;;;;;1.30;1.20;;;;;;;9.07;nan;97144.78;1728077;75;25001;-72
2023/03/25 05:10:37;;;;;;;0.80;0.80;;;;;;;9.24;nan;97147.69;1728747;75;25364;-73
2023/03/25 05:13:10;;;;;;;0.70;0.70;;;;;;;9.26;nan;97146.00;1728391;75;24202;-74
2023/03/25 05:15:42;;;;;;;0.40;0.40;;;;;;;9.21;nan;97149.38;1728304;75;60468;-72
2023/03/25 05:18:14;;;;;;;0.70;0.60;;;;;;;9.22;nan;97148.16;1728971;75;24578;-71
2023/03/25 05:20:49;;;;;;;0.70;0.70;;;;;;;9.23;nan;97144.19;1728303;75;60605;-71
2023/03/25 05:23:20;;;;;;;0.80;0.70;;;;;;;9.25;nan;97149.19;1728266;75;24444;-71
2023/03/25 05:25:52;;;;;;;0.70;0.70;;;;;;;9.24;nan;97155.91;1728198;75;24296;-75
2023/03/25 05:28:24;;;;;;;1.50;1.40;;;;;;;9.12;nan;97163.94;1728854;75;25019;-74
2023/03/25 05:30:54;;;;;;;1.70;1.30;;;;;;;9.27;nan;97169.31;1728452;75;25050;-72
2023/03/25 05:33:24;;;;;;;1.50;1.20;;;;;;;9.20;nan;97166.25;1728745;75;24565;-72
2023/03/25 05:35:53;;;;;;;1.40;1.20;;;;;;;9.31;nan;97153.50;1729047;75;24439;-72
2023/03/25 05:38:23;;;;;;;2.00;0.90;;;;;;;9.36;nan;97155.53;1728547;75;24329;-74
2023/03/25 05:40:53;;;;;;;0.80;0.80;;;;;;;9.38;nan;97161.28;1728896;75;24317;-72
2023/03/25 05:43:25;;;;;;;1.10;0.90;;;;;;;9.34;nan;97136.13;1728620;75;24277;-73
2023/03/25 05:45:55;;;;;;;1.00;1.00;;;;;;;9.34;nan;97136.13;1728337;75;24341;-72
2023/03/25 05:48:25;;;;;;;1.30;1.20;;;;;;;9.41;nan;97134.22;1728146;75;24614;-71
2023/03/25 05:50:55;;;;;;;1.30;1.00;;;;;;;9.43;nan;97135.25;1728527;75;24326;-74
2023/03/25 05:53:25;;;;;;;0.90;0.90;;;;;;;9.37;nan;97142.63;1728159;75;24955;-71
2023/03/25 05:55:54;;;;;;;1.10;1.00;;;;;;;9.28;nan;97148.97;1727568;75;25104;-75
2023/03/25 05:58:27;;;;;;;1.70;1.20;;;;;;;9.33;nan;97156.50;1727347;75;24740;-72
2023/03/25 06:00:56;;;;;;;1.00;0.90;;;;;;;9.48;nan;97166.59;1727715;75;24962;-71
2023/03/25 06:03:26;;;;;;;2.10;1.20;;;;;;;9.37;nan;97170.69;1728064;75;24274;-72
2023/03/25 06:05:57;;;;;;;2.00;1.40;;;;;;;9.31;nan;97177.34;1728337;75;24201;-71
2023/03/25 06:08:28;;;;;;;2.50;1.30;;;;;;;9.28;nan;97167.34;1727591;75;24379;-71
2023/03/25 06:11:00;;;;;;;2.60;1.10;;;;;;;9.33;nan;97172.88;1728527;75;24526;-71
2023/03/25 06:13:32;;;;;;;1.90;1.00;;;;;;;9.36;nan;97182.09;1727769;75;24459;-72
2023/03/25 06:16:02;;;;;;;1.10;1.00;;;;;;;9.47;nan;97174.03;1728269;75;24286;-72
2023/03/25 06:18:32;;;;;;;0.70;0.70;;;;;;;9.48;nan;97175.53;1727887;75;25065;-71
2023/03/25 06:21:02;;;;;;;0.50;0.50;;;;;;;9.58;nan;97171.41;1727912;75;25101;-74
2023/03/25 06:23:34;;;;;;;0.60;0.60;;;;;;;9.63;nan;97156.31;1727949;75;24586;-71
2023/03/25 06:26:04;;;;;;;0.70;0.70;;;;;;;9.44;nan;97155.13;1728154;75;24290;-73
2023/03/25 06:28:36;;;;;;;2.10;1.70;;;;;;;9.47;nan;97145.94;1727617;75;24287;-73
2023/03/25 06:31:07;;;;;;;1.50;1.40;;;;;;;9.61;nan;97134.19;1728112;75;24355;-74
2023/03/25 06:33:37;;;;;;;1.20;1.00;;;;;;;9.72;nan;97139.75;1727073;75;24432;-72
2023/03/25 06:36:10;;;;;;;2.00;1.50;;;;;;;9.80;nan;97151.75;1728329;75;24635;-71
2023/03/25 06:38:41;;;;;;;2.40;1.80;;;;;;;9.74;nan;97144.72;1727608;75;24490;-71
2023/03/25 06:41:10;;;;;;;1.90;1.50;;;;;;;9.65;nan;97126.53;1727996;75;24226;-71
2023/03/25 06:43:43;;;;;;;2.10;1.40;;;;;;;9.74;nan;97120.91;1727951;75;25047;-71
2023/03/25 06:46:12;;;;;;;2.00;1.40;;;;;;;9.84;nan;97126.97;1728398;75;25062;-72
2023/03/25 06:48:42;;;;;;;3.90;2.90;;;;;;;9.47;nan;97156.88;1727901;75;24879;-71
2023/03/25 06:51:12;;;;;;;5.50;3.20;;;;;;;9.57;nan;97155.50;1728286;75;24204;-72
2023/03/25 06:53:43;;;;;;;3.10;2.70;;;;;;;9.68;nan;97161.09;1728378;75;24452;-72
2023/03/25 06:56:13;;;;;;;4.00;2.90;;;;;;;9.67;nan;97165.06;1728424;75;24239;-72
2023/03/25 06:58:45;;;;;;;3.00;2.70;;;;;;;9.81;nan;97174.38;1727776;75;24597;-71
2023/03/25 07:01:15;;;;;;;3.00;2.50;;;;;;;9.94;nan;97182.22;1728450;75;24616;-72
2023/03/25 07:03:55;;;;;;;2.80;2.50;;;;;;;9.91;nan;97192.13;1727950;75;57905;-72
2023/03/25 07:06:26;;;;;;;18.20;14.00;;;;;;;10.02;nan;97200.44;1728063;75;24779;-72
2023/03/25 07:08:56;;;;;;;11.60;9.70;;;;;;;10.04;nan;97208.16;1728551;75;25051;-71
2023/03/25 07:11:30;;;;;;;6.20;4.80;;;;;;;9.86;nan;97211.19;1728178;75;24738;-71
2023/03/25 07:14:02;;;;;;;3.80;3.40;;;;;;;9.78;nan;97222.56;1728621;75;24339;-72
2023/03/25 07:16:32;;;;;;;3.80;2.70;;;;;;;9.77;nan;97229.28;1727380;75;25624;-72
2023/03/25 07:19:01;;;;;;;2.70;2.30;;;;;;;9.70;nan;97226.22;1728235;75;25203;-71
2023/03/25 07:21:31;;;;;;;2.20;1.90;;;;;;;9.75;nan;97230.97;1727790;75;24930;-71
2023/03/25 07:24:01;;;;;;;1.80;1.60;;;;;;;9.77;nan;97215.59;1728087;75;24380;-70
2023/03/25 07:26:30;;;;;;;2.30;1.50;;;;;;;9.84;nan;97219.13;1727330;75;24179;-72
2023/03/25 07:29:03;;;;;;;1.50;1.20;;;;;;;9.93;nan;97218.97;1728499;75;24396;-73
2023/03/25 07:31:32;;;;;;;1.10;1.00;;;;;;;10.09;nan;97210.19;1727671;75;25426;-72
2023/03/25 07:34:02;;;;;;;0.80;0.80;;;;;;;10.22;nan;97202.38;1728491;75;24598;-71
2023/03/25 07:36:32;;;;;;;1.10;1.00;;;;;;;10.13;nan;97196.31;1727966;75;24558;-72
2023/03/25 07:39:01;;;;;;;1.60;1.30;;;;;;;10.05;nan;97198.72;1727651;75;24364;-71
2023/03/25 07:41:31;;;;;;;1.40;1.30;;;;;;;10.05;nan;97187.03;1728309;75;25368;-72
2023/03/25 07:44:03;;;;;;;1.70;1.60;;;;;;;10.07;nan;97188.03;1728624;75;25098;-72
2023/03/25 07:46:33;;;;;;;2.30;1.90;;;;;;;10.08;nan;97191.53;1728539;75;24166;-73
2023/03/25 07:49:03;;;;;;;2.70;1.90;;;;;;;10.23;nan;97175.75;1728423;75;24279;-76
2023/03/25 07:51:33;;;;;;;3.10;2.60;;;;;;;10.30;nan;97174.59;1727883;75;24198;-73
2023/03/25 07:54:03;;;;;;;3.10;2.50;;;;;;;10.47;nan;97175.47;1729063;75;24245;-72
2023/03/25 07:56:33;;;;;;;2.80;2.30;;;;;;;10.43;nan;97175.69;1728579;75;25024;-73
2023/03/25 07:59:05;;;;;;;1.60;1.50;;;;;;;10.57;nan;97176.03;1728919;75;24506;-73
2023/03/25 08:01:35;;;;;;;5.40;4.70;;;;;;;10.78;nan;97177.44;1728273;75;24745;-74
2023/03/25 08:04:07;;;;;;;3.90;3.20;;;;;;;10.87;nan;97179.22;1728901;75;24259;-74
2023/03/25 08:06:37;;;;;;;2.90;2.50;;;;;;;11.01;nan;97189.25;1728001;75;25471;-73
2023/03/25 08:09:07;;;;;;;2.60;1.90;;;;;;;11.12;nan;97193.31;1728549;75;25140;-74
2023/03/25 08:11:36;;;;;;;1.60;1.50;;;;;;;11.33;nan;97186.44;1728143;83;24420;-71
2023/03/25 08:14:09;;;;;;;1.30;1.20;;;;;;;11.65;nan;97186.28;1728493;75;24356;-72
2023/03/25 08:16:38;;;;;;;3.30;2.00;;;;;;;11.49;nan;97187.72;1728089;75;24347;-73
2023/03/25 08:19:08;;;;;;;1.90;1.70;;;;;;;11.81;nan;97193.03;1728401;75;24382;-73
2023/03/25 08:21:38;;;;;;;1.70;1.60;;;;;;;11.83;nan;97187.81;1727522;75;24879;-73
2023/03/25 08:24:10;;;;;;;2.10;1.90;;;;;;;11.78;nan;97194.78;1728772;75;24664;-74
2023/03/25 08:26:40;;;;;;;2.30;2.10;;;;;;;11.71;nan;97203.47;1728256;75;24550;-74
2023/03/25 08:29:16;;;;;;;1.70;1.60;;;;;;;11.80;nan;97200.53;1728620;75;24305;-74
2023/03/25 08:31:50;;;;;;;2.10;1.90;;;;;;;11.80;nan;97216.22;1727898;75;60555;-75
2023/03/25 08:34:21;;;;;;;2.70;2.10;;;;;;;11.69;nan;97217.72;1728230;75;25713;-74
2023/03/25 08:36:51;;;;;;;2.40;2.20;;;;;;;11.57;nan;97215.41;1727573;75;60652;-74
2023/03/25 08:39:28;;;;;;;2.40;2.00;;;;;;;11.49;nan;97224.09;1728518;75;24982;-72
2023/03/25 08:41:59;;;;;;;;;;;;;;;11.35;nan;97232.50;1727609;75;60518;-72
2023/03/25 08:44:31;;;;;;;2.30;2.10;;;;;;;11.30;nan;97239.47;1726593;75;24208;-69
2023/03/25 08:47:00;;;;;;;1.80;1.60;;;;;;;11.36;nan;97229.28;1726199;75;59785;-72
2023/03/25 08:49:30;;;;;;;3.70;2.10;;;;;;;11.29;nan;97235.97;1726715;75;24317;-70
2023/03/25 08:52:00;;;;;;;2.70;1.80;;;;;;;11.29;nan;97241.44;1726561;75;24233;-72
2023/03/25 08:54:30;;;;;;;1.40;1.30;;;;;;;11.20;nan;97241.66;1726681;75;24312;-75
2023/03/25 08:57:00;;;;;;;1.60;1.40;;;;;;;11.26;nan;97258.13;1726433;83;24897;-71
2023/03/25 08:59:33;;;;;;;1.90;1.70;;;;;;;11.17;nan;97261.81;1727384;75;24483;-71
2023/03/25 09:02:02;;;;;;;2.10;1.90;;;;;;;10.83;nan;97245.16;1727168;75;61629;-69
2023/03/25 09:04:32;;;;;;;3.10;2.20;;;;;;;10.66;nan;97219.66;1727354;75;24168;-71
2023/03/25 09:07:02;;;;;;;1.90;1.70;;;;;;;10.55;nan;97212.09;1726931;75;24359;-72
2023/03/25 09:09:31;;;;;;;1.50;1.20;;;;;;;10.50;nan;97204.59;1727245;75;24183;-73
2023/03/25 09:12:01;;;;;;;2.00;1.10;;;;;;;10.44;nan;97193.63;1727019;75;24110;-71
2023/03/25 09:14:33;;;;;;;1.30;1.10;;;;;;;10.39;nan;97190.81;1727193;83;24698;-72
2023/03/25 09:17:04;;;;;;;1.40;1.00;;;;;;;10.38;nan;97197.53;1727060;75;60549;-70
2023/03/25 09:19:36;;;;;;;0.80;0.80;;;;;;;10.39;nan;97177.91;1727430;75;24398;-69
2023/03/25 09:22:07;;;;;;;1.60;1.00;;;;;;;10.43;nan;97181.16;1726924;75;61635;-71
2023/03/25 09:24:36;;;;;;;1.20;0.90;;;;;;;10.46;nan;97193.13;1727251;75;24767;-70
2023/03/25 09:27:06;;;;;;;3.90;1.10;;;;;;;10.39;nan;97186.13;1726921;75;60457;-72
2023/03/25 09:29:41;;;;;;;1.40;1.00;;;;;;;10.37;nan;97194.06;1727618;75;24660;-73
2023/03/25 09:32:10;;;;;;;1.60;1.20;;;;;;;10.31;nan;97193.25;1726939;75;60630;-71
2023/03/25 09:34:40;;;;;;;1.70;1.20;;;;;;;10.28;nan;97179.78;1727452;75;24778;-70
2023/03/25 09:37:10;;;;;;;1.80;1.30;;;;;;;10.33;nan;97184.56;1726984;75;24272;-73
2023/03/25 09:39:40;;;;;;;2.60;1.90;;;;;;;10.36;nan;97181.59;1727397;75;24208;-70
2023/03/25 09:42:43;;;;;;;3.10;2.40;;;;;;;10.30;nan;97186.28;1726953;75;25284;-72
2023/03/25 09:45:32;;;;;;;3.90;2.30;;;;;;;10.23;nan;97190.19;1726139;75;59547;-71
2023/03/25 09:48:07;;;;;;;5.60;3.40;;;;;;;10.18;nan;97210.03;1726763;75;24210;-71
2023/03/25 09:50:39;;;;;;;4.30;3.10;;;;;;;10.22;nan;97210.56;1727063;75;25154;-69
2023/03/25 09:53:22;;;;;;;3.70;2.10;;;;;;;10.34;nan;97232.56;1727143;75;24745;-76
2023/03/25 09:55:53;;;;;;;2.20;1.90;;;;;;;10.30;nan;97229.31;1727367;75;24648;-75
2023/03/25 09:58:36;;;;;;;2.50;1.50;;;;;;;10.31;nan;97236.28;1727541;75;24701;-70
2023/03/25 10:01:42;;;;;;;1.90;1.50;;;;;;;10.24;nan;97257.31;1727078;75;24693;-73
2023/03/25 10:04:35;;;;;;;1.50;1.20;;;;;;;10.15;nan;97260.25;1727475;75;24265;-71
2023/03/25 10:07:21;;;;;;;1.90;1.50;;;;;;;10.18;nan;97262.00;1726817;75;24225;-71
2023/03/25 10:10:00;;;;;;;2.30;1.20;;;;;;;10.11;nan;97269.91;1727148;75;24155;-69
2023/03/25 10:12:43;;;;;;;2.00;0.90;;;;;;;10.21;nan;97269.25;1727354;75;24372;-73
2023/03/25 10:15:28;;;;;;;1.60;1.00;;;;;;;10.15;nan;97276.66;1726935;75;61607;-73
2023/03/25 10:18:29;;;;;;;1.30;1.00;;;;;;;10.18;nan;97274.94;1727292;75;24293;-72
2023/03/25 10:21:06;;;;;;;1.40;0.90;;;;;;;10.18;nan;97277.69;1727167;75;24233;-72
2023/03/25 10:23:39;;;;;;;;;;;;;;;10.11;nan;97289.78;1727146;75;24292;-74
2023/03/25 10:26:15;;;;;;;5.60;3.90;;;;;;;10.12;nan;97283.06;1727232;75;24874;-71
2023/03/25 10:28:53;;;;;;;2.10;1.90;;;;;;;10.15;nan;97282.13;1727507;75;24681;-72
2023/03/25 10:31:31;;;;;;;1.40;1.10;;;;;;;10.19;nan;97274.44;1726695;75;62504;-70
2023/03/25 10:34:08;;;;;;;1.20;0.80;;;;;;;10.18;nan;97283.91;1727301;75;24964;-72
2023/03/25 10:36:40;;;;;;;;;;;;;;;10.20;nan;97269.75;1727525;75;24235;-71
2023/03/25 10:39:20;;;;;;;1.30;0.90;;;;;;;10.17;nan;97279.66;1727245;75;24410;-71
2023/03/25 10:41:57;;;;;;;1.20;1.10;;;;;;;10.13;nan;97281.84;1727630;75;24210;-70
2023/03/25 10:44:29;;;;;;;1.30;1.00;;;;;;;10.10;nan;97269.16;1726662;75;59924;-72
2023/03/25 10:47:05;;;;;;;2.40;1.90;;;;;;;10.14;nan;97266.94;1727265;75;24183;-71
2023/03/25 10:49:38;;;;;;;2.00;1.00;;;;;;;10.16;nan;97250.78;1727079;75;61649;-73
2023/03/25 10:52:09;;;;;;;2.00;1.10;;;;;;;10.23;nan;97247.63;1727472;75;25167;-73
2023/03/25 10:54:43;;;;;;;2.70;1.80;;;;;;;10.27;nan;97243.91;1727123;75;60653;-75
2023/03/25 10:57:20;;;;;;;2.20;1.70;;;;;;;10.31;nan;97241.75;1727337;75;24286;-71
2023/03/25 11:00:02;;;;;;;3.90;2.20;;;;;;;10.48;nan;97241.91;1727023;75;59525;-71
2023/03/25 11:02:35;;;;;;;2.40;1.80;;;;;;;10.52;nan;97245.19;1727225;75;24418;-70
2023/03/25 11:05:09;;;;;;;3.00;1.70;;;;;;;10.51;nan;97255.38;1727651;75;24189;-71
2023/03/25 11:07:42;;;;;;;2.00;1.40;;;;;;;10.56;nan;97237.47;1726589;75;24264;-73
2023/03/25 11:10:22;;;;;;;2.30;1.60;;;;;;;10.62;nan;97241.75;1726872;75;25008;-68
2023/03/25 11:12:53;;;;;;;5.60;3.50;;;;;;;10.58;nan;97241.25;1726270;75;61628;-69
2023/03/25 11:15:27;;;;;;;4.40;3.00;;;;;;;10.58;nan;97243.22;1726832;75;24213;-69
2023/03/25 11:18:05;;;;;;;4.80;3.20;;;;;;;10.72;nan;97242.34;1726365;75;60588;-68
2023/03/25 11:20:41;;;;;;;5.90;4.00;;;;;;;10.47;nan;97243.16;1726847;75;24528;-69
2023/03/25 11:23:23;;;;;;;4.20;3.40;;;;;;;10.38;nan;97242.06;1726495;75;24311;-69
2023/03/25 11:25:54;;;;;;;4.50;3.90;;;;;;;10.48;nan;97250.84;1726648;75;25103;-68
2023/03/25 11:28:38;;;;;;;5.60;4.20;;;;;;;10.49;nan;97246.16;1726345;75;25133;-69
2023/03/25 11:31:18;;;;;;;5.10;3.60;;;;;;;10.39;nan;97251.03;1726411;75;60350;-70
2023/03/25 11:34:05;;;;;;;3.60;2.70;;;;;;;10.34;nan;97251.72;1726650;75;24501;-69
2023/03/25 11:36:40;;;;;;;7.70;6.90;;;;;;;10.23;nan;97241.41;1727024;75;25048;-71
2023/03/25 11:39:19;;;;;;;2.90;2.40;;;;;;;10.18;nan;97248.34;1726289;75;61558;-73
2023/03/25 11:41:49;;;;;;;1.10;1.00;;;;;;;10.19;nan;97249.81;1726663;75;25449;-70
2023/03/25 11:44:27;;;;;;;1.10;0.80;;;;;;;10.07;nan;97234.53;1726913;75;25123;-70
2023/03/25 11:46:59;;;;;;;;;;;;;;;10.15;nan;97232.91;1726616;75;24271;-70
2023/03/25 11:49:34;;;;;;;1.60;0.90;;;;;;;10.04;nan;97238.25;1726284;75;24265;-72
2023/03/25 11:52:11;;;;;;;2.40;1.00;;;;;;;10.11;nan;97223.41;1726220;75;24282;-68
2023/03/25 11:54:41;;;;;;;2.30;0.80;;;;;;;10.19;nan;97219.00;1726344;75;24441;-69
2023/03/25 11:57:18;;;;;;;0.90;0.80;;;;;;;10.30;nan;97216.38;1726480;75;46793;-68
2023/03/25 11:59:50;;;;;;;0.90;0.60;;;;;;;10.17;nan;97210.50;1726450;75;24338;-71
2023/03/25 12:02:26;;;;;;;0.70;0.70;;;;;;;10.35;nan;97223.16;1726524;75;24229;-71
2023/03/25 12:05:02;;;;;;;1.40;0.90;;;;;;;10.40;nan;97216.97;1726705;75;24188;-70
2023/03/25 12:07:45;;;;;;;0.90;0.50;;;;;;;10.31;nan;97217.88;1726776;75;24439;-69
2023/03/25 12:10:21;;;;;;;0.80;0.70;;;;;;;10.30;nan;97219.13;1726248;75;61640;-70
2023/03/25 12:13:05;;;;;;;0.60;0.50;;;;;;;10.36;nan;97213.69;1726461;83;24658;-71
2023/03/25 12:15:41;;;;;;;0.90;0.70;;;;;;;10.37;nan;97215.94;1726949;75;25183;-69
2023/03/25 12:18:36;;;;;;;1.00;0.60;;;;;;;10.44;nan;97215.50;1726539;75;24662;-68
2023/03/25 12:21:15;;;;;;;1.20;0.70;;;;;;;10.39;nan;97215.44;1727042;75;24632;-69
2023/03/25 12:23:55;;;;;;;0.70;0.60;;;;;;;10.44;nan;97212.78;1726935;75;24188;-71
2023/03/25 12:26:37;;;;;;;0.80;0.80;;;;;;;10.55;nan;97212.09;1726548;75;62677;-71
2023/03/25 12:29:21;;;;;;;1.50;1.00;;;;;;;10.53;nan;97203.63;1726730;75;24361;-69